Time;durP1;ratioP1;P1;durP2;ratioP2;P2;SDS_P1;SDS_P2;PMS_P1;PMS_P2;Temp;Humidity;BMP_temperature;BMP_pressure;BME280_temperature;BME280_humidity;BME280_pressure;Samples;Min_cycle;Max_cycle;Signal;HPM_P1;HPM_P2
2021/03/18 00:01:20;;;;;;;14.65;7.97;;;;;;;3.37;56.99;100167.94;5094632;28;20424;-74
2021/03/18 00:03:48;;;;;;;17.08;9.00;;;;;;;3.31;56.75;100168.16;5094296;28;20032;-74
2021/03/18 00:06:14;;;;;;;16.63;8.35;;;;;;;3.36;57.13;100180.28;5094722;28;20028;-73
2021/03/18 00:08:41;;;;;;;14.93;7.93;;;;;;;3.42;56.98;100185.38;5076200;28;20032;-76
2021/03/18 00:11:12;;;;;;;14.98;8.13;;;;;;;3.47;56.63;100181.72;5094595;28;20501;-74
2021/03/18 00:13:40;;;;;;;14.25;7.85;;;;;;;3.42;56.68;100182.72;5094659;28;20115;-75
2021/03/18 00:16:07;;;;;;;15.02;7.88;;;;;;;3.31;56.50;100157.63;5076282;28;20063;-75
2021/03/18 00:18:47;;;;;;;18.13;8.60;;;;;;;3.35;56.96;100173.28;5094559;28;20043;-75
2021/03/18 00:21:13;;;;;;;15.82;8.23;;;;;;;3.43;56.57;100186.22;5094785;28;20054;-75
2021/03/18 00:23:39;;;;;;;14.57;7.85;;;;;;;3.42;56.92;100181.88;5076338;28;20116;-75
2021/03/18 00:26:06;;;;;;;15.82;8.10;;;;;;;3.30;56.58;100164.69;5094010;28;20074;-74
2021/03/18 00:28:32;;;;;;;14.98;8.00;;;;;;;3.42;56.80;100187.16;5076048;28;20035;-74
2021/03/18 00:30:58;;;;;;;16.77;8.45;;;;;;;3.03;57.32;100123.38;5076033;28;20036;-75
2021/03/18 00:33:24;;;;;;;16.40;8.10;;;;;;;3.18;57.62;100167.66;5094101;28;20153;-75
2021/03/18 00:35:50;;;;;;;14.70;8.30;;;;;;;3.09;58.27;100171.47;5093706;28;20031;-73
2021/03/18 00:38:16;;;;;;;16.58;8.82;;;;;;;3.19;58.03;100179.09;5094285;28;20115;-74
2021/03/18 00:40:44;;;;;;;17.80;8.95;;;;;;;3.18;58.17;100167.66;5093963;28;20407;-75
2021/03/18 00:43:13;;;;;;;17.92;9.07;;;;;;;3.15;57.91;100170.41;5093744;28;20059;-74
2021/03/18 00:45:40;;;;;;;15.13;8.82;;;;;;;3.07;58.25;100153.97;5075660;28;20040;-74
2021/03/18 00:48:08;;;;;;;17.85;9.93;;;;;;;3.02;59.00;100171.72;5058762;28;20386;-74
2021/03/18 00:50:50;;;;;;;19.10;9.10;;;;;;;2.91;59.18;100160.66;5093671;28;20107;-73
2021/03/18 00:53:22;;;;;;;18.27;9.15;;;;;;;2.68;59.24;100120.03;5093642;28;20141;-70
2021/03/18 00:55:48;;;;;;;19.98;9.75;;;;;;;3.00;59.31;100166.50;5093347;28;20028;-71
2021/03/18 00:58:15;;;;;;;19.92;9.90;;;;;;;2.64;59.66;100112.28;5093747;28;20032;-71
2021/03/18 01:00:48;;;;;;;17.15;9.40;;;;;;;3.01;59.32;100165.59;5093777;28;20054;-71
2021/03/18 01:03:14;;;;;;;19.53;9.67;;;;;;;2.69;59.51;100127.03;5093656;28;20028;-71
2021/03/18 01:05:44;;;;;;;17.55;9.98;;;;;;;2.97;59.77;100165.72;5075524;28;20085;-71
2021/03/18 01:08:12;;;;;;;19.73;9.75;;;;;;;2.65;60.08;100125.41;5093765;28;20032;-71
2021/03/18 01:10:46;;;;;;;18.95;9.68;;;;;;;2.55;60.13;100103.75;5075451;28;20115;-71
2021/03/18 01:13:18;;;;;;;20.83;9.95;;;;;;;2.93;59.78;100158.81;5093650;28;20032;-71
2021/03/18 01:15:53;;;;;;;19.63;10.13;;;;;;;2.90;60.00;100161.56;5093047;28;20083;-78
2021/03/18 01:18:21;;;;;;;17.05;9.63;;;;;;;2.41;60.23;100102.41;5093748;28;20044;-76
2021/03/18 01:20:47;;;;;;;19.15;10.02;;;;;;;2.65;60.63;100156.13;5093340;28;20090;-78
2021/03/18 01:23:13;;;;;;;17.70;9.75;;;;;;;2.50;60.42;100134.59;5093745;28;20036;-78
2021/03/18 01:25:39;;;;;;;22.65;10.70;;;;;;;2.56;60.59;100149.38;5075516;28;20547;-76
2021/03/18 01:28:05;;;;;;;21.27;9.85;;;;;;;2.66;60.23;100161.34;5075292;28;20040;-78
2021/03/18 01:30:31;;;;;;;18.75;9.95;;;;;;;2.47;60.35;100136.47;5093588;28;20039;-78
2021/03/18 01:32:57;;;;;;;21.52;10.07;;;;;;;2.14;60.60;100091.78;5075146;28;20040;-77
2021/03/18 01:35:23;;;;;;;19.42;10.32;;;;;;;2.14;60.69;100096.19;5093296;28;20497;-77
2021/03/18 01:37:50;;;;;;;20.92;10.30;;;;;;;2.46;60.76;100150.53;5093332;28;20040;-77
2021/03/18 01:40:20;;;;;;;17.92;9.98;;;;;;;2.45;60.94;100156.72;5075726;28;20067;-77
2021/03/18 01:42:46;;;;;;;20.23;10.50;;;;;;;2.47;60.48;100147.00;5075034;28;20378;-72
2021/03/18 01:45:13;;;;;;;17.10;9.27;;;;;;;2.43;60.34;100146.22;5092976;28;20085;-72
2021/03/18 01:47:41;;;;;;;21.58;10.27;;;;;;;2.24;60.82;100130.09;5077071;28;20032;-72
2021/03/18 01:50:08;;;;;;;19.95;10.45;;;;;;;2.56;60.07;100152.00;5096851;28;20032;-71
2021/03/18 01:52:35;;;;;;;23.70;10.15;;;;;;;2.50;59.95;100152.16;5097283;28;20036;-71
2021/03/18 01:55:00;;;;;;;20.48;9.93;;;;;;;2.00;60.21;100088.66;5097159;28;20066;-76
2021/03/18 01:57:26;;;;;;;18.02;9.88;;;;;;;2.05;60.01;100078.91;5097042;28;20067;-75
2021/03/18 01:59:53;;;;;;;21.60;10.68;;;;;;;2.09;60.01;100088.41;5096886;28;20425;-76
2021/03/18 02:02:19;;;;;;;22.17;10.15;;;;;;;2.46;59.41;100150.53;5096966;28;20032;-75
2021/03/18 02:04:46;;;;;;;20.17;9.88;;;;;;;2.28;59.55;100134.34;5097133;28;20047;-74
2021/03/18 02:07:11;;;;;;;19.80;9.70;;;;;;;2.35;60.11;100155.25;5096890;28;20499;-76
2021/03/18 02:09:37;;;;;;;19.08;9.43;;;;;;;2.19;59.90;100125.84;5097043;28;20056;-76
2021/03/18 02:12:03;;;;;;;17.77;9.60;;;;;;;2.16;60.04;100132.06;5078513;28;20032;-74
2021/03/18 02:14:29;;;;;;;18.10;10.45;;;;;;;2.13;60.59;100147.09;5096702;28;20040;-74
2021/03/18 02:16:59;;;;;;;19.23;10.38;;;;;;;2.03;60.89;100137.69;5078314;28;20550;-74
2021/03/18 02:19:46;;;;;;;20.67;10.57;;;;;;;2.15;60.97;100161.06;5079005;28;20133;-75
2021/03/18 02:22:45;;;;;;;20.15;9.90;;;;;;;2.10;61.24;100158.53;5096662;28;20036;-76
2021/03/18 02:25:23;;;;;;;21.63;10.32;;;;;;;2.18;60.77;100172.38;5096573;28;20036;-77
2021/03/18 02:28:26;;;;;;;19.98;9.85;;;;;;;2.15;60.82;100164.56;5078371;28;20032;-78
2021/03/18 02:31:10;;;;;;;22.10;9.73;;;;;;;2.11;60.18;100133.97;5096395;28;20588;-75
2021/03/18 02:34:07;;;;;;;;;;;;;;;2.10;60.87;100161.19;5078617;28;20115;-75
2021/03/18 02:36:36;;;;;;;17.95;9.98;;;;;;;2.04;60.47;100148.22;5051405;28;19955;-74
2021/03/18 02:39:09;;;;;;;19.30;9.45;;;;;;;1.71;60.31;100092.09;5096111;28;20020;-74
2021/03/18 02:41:39;;;;;;;;;;;;;;;2.22;59.77;100158.22;5078450;28;20085;-74
2021/03/18 02:44:27;;;;;;;19.98;9.68;;;;;;;2.18;59.88;100148.69;5077869;28;20015;-75
2021/03/18 02:46:59;;;;;;;19.20;9.90;;;;;;;1.92;59.98;100132.72;5096124;28;20032;-74
2021/03/18 02:49:27;;;;;;;21.10;9.93;;;;;;;2.07;60.03;100145.47;5096166;28;20067;-75
2021/03/18 02:51:55;;;;;;;19.35;9.63;;;;;;;1.73;59.59;100092.91;5077670;28;20083;-75
2021/03/18 02:54:21;;;;;;;19.10;9.45;;;;;;;1.91;60.26;100131.88;5077895;28;20036;-71
2021/03/18 02:56:50;;;;;;;17.25;9.50;;;;;;;1.66;60.69;100102.75;5077924;28;20032;-71
2021/03/18 02:59:21;;;;;;;17.63;10.13;;;;;;;1.86;60.32;100135.53;5078084;28;20039;-71
2021/03/18 03:01:48;;;;;;;16.90;9.18;;;;;;;2.04;60.28;100163.13;5096064;28;20412;-71
2021/03/18 03:04:15;;;;;;;19.10;9.40;;;;;;;2.05;60.67;100157.81;5094288;28;20470;-71
2021/03/18 03:06:42;;;;;;;20.17;9.90;;;;;;;2.07;60.40;100157.78;5095749;28;20047;-71
2021/03/18 03:09:09;;;;;;;17.42;9.85;;;;;;;2.06;59.82;100162.19;5095302;28;20036;-72
2021/03/18 03:11:37;;;;;;;18.70;8.80;;;;;;;2.04;60.23;100158.72;5095965;28;20162;-71
2021/03/18 03:14:05;;;;;;;17.98;9.65;;;;;;;2.03;59.71;100151.75;5077248;28;20040;-71
2021/03/18 03:16:32;;;;;;;20.65;9.95;;;;;;;2.06;60.06;100164.81;5073888;28;20419;-71
2021/03/18 03:18:58;;;;;;;23.88;9.88;;;;;;;2.09;59.81;100162.09;5075070;28;20032;-71
2021/03/18 03:21:25;;;;;;;18.20;9.73;;;;;;;2.11;59.65;100164.66;5075208;28;20029;-72
2021/03/18 03:23:51;;;;;;;18.17;9.45;;;;;;;1.96;59.79;100144.91;5074001;28;20037;-74
2021/03/18 03:26:22;;;;;;;18.75;9.57;;;;;;;2.03;60.07;100154.38;5075183;28;20047;-73
2021/03/18 03:28:49;;;;;;;19.95;10.07;;;;;;;2.12;60.51;100171.66;5073966;28;20395;-73
2021/03/18 03:31:16;;;;;;;20.67;10.57;;;;;;;2.12;60.12;100171.66;5074822;28;20062;-74
2021/03/18 03:33:42;;;;;;;18.35;9.93;;;;;;;1.95;59.93;100149.31;5075068;28;20046;-73
2021/03/18 03:36:07;;;;;;;19.02;10.20;;;;;;;1.72;60.18;100120.97;5074979;28;20028;-74
2021/03/18 03:38:33;;;;;;;17.08;9.48;;;;;;;1.92;59.92;100144.09;5075270;28;20429;-73
2021/03/18 03:40:59;;;;;;;19.88;10.07;;;;;;;1.84;60.36;100150.50;5073348;28;20392;-75
2021/03/18 03:43:25;;;;;;;20.27;10.05;;;;;;;1.88;60.51;100144.25;5074762;28;20032;-75
2021/03/18 03:45:52;;;;;;;18.42;10.05;;;;;;;1.78;59.93;100125.22;5057399;28;20086;-74
2021/03/18 03:48:19;;;;;;;21.20;9.98;;;;;;;2.00;60.14;100157.06;5074491;28;20078;-74
2021/03/18 03:50:45;;;;;;;17.13;9.45;;;;;;;2.01;60.26;100169.31;5074594;28;20538;-75
2021/03/18 03:53:18;;;;;;;18.83;10.30;;;;;;;2.06;60.65;100182.38;5074482;28;20037;-75
2021/03/18 03:55:55;;;;;;;19.85;10.50;;;;;;;2.11;60.47;100186.59;5074811;28;20544;-75
2021/03/18 03:58:46;;;;;;;18.60;10.48;;;;;;;2.14;60.36;100180.41;5074735;28;20044;-75
2021/03/18 04:01:51;;;;;;;17.95;9.77;;;;;;;2.21;60.31;100185.44;5074247;28;20434;-77
2021/03/18 04:04:34;;;;;;;19.13;10.57;;;;;;;2.19;60.44;100187.25;4976883;28;20030;-74
2021/03/18 04:07:10;;;;;;;17.77;9.67;;;;;;;2.19;60.54;100189.88;4992750;28;20114;-75
2021/03/18 04:09:37;;;;;;;17.80;9.57;;;;;;;2.06;59.93;100162.19;5046269;28;20175;-74
2021/03/18 04:12:04;;;;;;;19.17;10.15;;;;;;;2.16;60.73;100181.22;5074327;28;20037;-73
2021/03/18 04:14:33;;;;;;;20.52;10.25;;;;;;;2.08;61.14;100186.66;5074816;28;20089;-73
2021/03/18 04:17:05;;;;;;;19.45;9.82;;;;;;;1.83;60.61;100125.94;5073475;28;20551;-76
2021/03/18 04:19:31;;;;;;;18.33;10.00;;;;;;;2.08;61.03;100185.81;5074366;28;20492;-76
2021/03/18 04:21:57;;;;;;;20.08;9.95;;;;;;;2.13;60.49;100184.78;5072642;28;20344;-77
2021/03/18 04:24:24;;;;;;;17.13;9.68;;;;;;;2.04;60.80;100184.19;5056623;28;20055;-75
2021/03/18 04:26:51;;;;;;;21.30;11.05;;;;;;;2.14;60.60;100191.78;5074310;28;20036;-75
2021/03/18 04:29:17;;;;;;;20.75;10.77;;;;;;;1.79;60.88;100131.34;5073804;28;20395;-73
2021/03/18 04:31:43;;;;;;;20.95;9.85;;;;;;;2.06;60.46;100172.69;5073929;28;20039;-74
2021/03/18 04:34:15;;;;;;;19.20;9.85;;;;;;;1.94;61.44;100162.50;5073639;28;20032;-74
2021/03/18 04:36:43;;;;;;;18.58;10.27;;;;;;;2.06;61.40;100198.16;5072826;28;20041;-74
2021/03/18 04:39:09;;;;;;;21.38;10.65;;;;;;;2.14;60.75;100190.94;5073673;28;20035;-74
2021/03/18 04:41:35;;;;;;;17.15;8.73;;;;;;;2.08;61.27;100197.19;5073719;28;20038;-74
2021/03/18 04:44:01;;;;;;;19.67;10.57;;;;;;;1.94;61.23;100170.41;5072373;28;20040;-75
2021/03/18 04:46:29;;;;;;;18.67;10.35;;;;;;;1.99;61.36;100171.13;5073753;28;20054;-74
2021/03/18 04:48:57;;;;;;;21.17;10.75;;;;;;;1.99;61.05;100173.75;5072407;28;20084;-75
2021/03/18 04:51:23;;;;;;;20.70;10.80;;;;;;;2.15;61.23;100206.66;5073689;28;20034;-74
2021/03/18 04:53:49;;;;;;;20.15;10.40;;;;;;;2.09;61.65;100204.19;5072527;28;20393;-75
2021/03/18 04:56:15;;;;;;;23.88;11.00;;;;;;;2.03;61.71;100204.38;5072688;28;20037;-74
2021/03/18 04:58:42;;;;;;;18.15;10.15;;;;;;;2.10;61.53;100205.03;5073693;28;20037;-74
2021/03/18 05:01:09;;;;;;;19.42;10.43;;;;;;;2.04;61.53;100179.78;5073639;28;20028;-74
2021/03/18 05:03:36;;;;;;;20.75;10.43;;;;;;;2.13;61.98;100205.84;5073481;28;20071;-74
2021/03/18 05:06:04;;;;;;;21.90;10.82;;;;;;;2.23;61.87;100211.72;5073351;28;20048;-76
2021/03/18 05:08:32;;;;;;;21.55;10.93;;;;;;;1.92;61.14;100153.78;5073505;28;20020;-74
2021/03/18 05:10:58;;;;;;;20.25;10.85;;;;;;;2.01;61.41;100183.34;5073666;28;20387;-75
2021/03/18 05:13:26;;;;;;;23.13;11.52;;;;;;;2.07;61.32;100192.84;5073096;28;20443;-74
2021/03/18 05:15:53;;;;;;;20.05;10.95;;;;;;;2.26;61.51;100223.03;5078217;28;20059;-74
2021/03/18 05:18:20;;;;;;;23.20;10.98;;;;;;;1.85;61.52;100165.38;5093145;28;20119;-73
2021/03/18 05:20:47;;;;;;;21.35;11.10;;;;;;;2.26;61.54;100228.28;5075208;28;20359;-74
2021/03/18 05:23:14;;;;;;;22.40;11.57;;;;;;;2.16;61.64;100226.81;5092788;28;20028;-74
2021/03/18 05:25:40;;;;;;;21.52;11.75;;;;;;;2.28;61.42;100236.16;5058784;28;20371;-75
2021/03/18 05:28:07;;;;;;;21.05;11.27;;;;;;;2.15;61.89;100225.09;5092919;28;20176;-74
2021/03/18 05:30:34;;;;;;;24.48;12.40;;;;;;;2.06;62.04;100211.31;5075541;28;20050;-72
2021/03/18 05:33:02;;;;;;;21.23;11.88;;;;;;;2.16;62.25;100226.81;5092807;28;20482;-72
2021/03/18 05:35:28;;;;;;;22.70;11.75;;;;;;;1.96;62.32;100193.13;5093120;28;20047;-71
2021/03/18 05:37:53;;;;;;;22.05;11.75;;;;;;;2.30;62.07;100236.97;5093148;28;20031;-72
2021/03/18 05:40:20;;;;;;;22.13;11.20;;;;;;;2.23;61.75;100209.97;5074686;28;20028;-72
2021/03/18 05:42:47;;;;;;;19.98;10.80;;;;;;;2.35;60.87;100215.78;5092798;28;20115;-71
2021/03/18 05:45:15;;;;;;;21.65;11.55;;;;;;;2.25;61.68;100223.94;5074685;28;20055;-73
2021/03/18 05:47:40;;;;;;;19.60;10.60;;;;;;;2.43;61.13;100229.63;5093032;28;20439;-71
2021/03/18 05:50:18;;;;;;;22.73;11.77;;;;;;;2.53;61.48;100241.63;5092645;28;20105;-72
2021/03/18 05:52:44;;;;;;;22.80;12.30;;;;;;;2.46;61.78;100240.06;5093005;28;20032;-76
2021/03/18 05:55:11;;;;;;;26.33;12.40;;;;;;;2.37;61.65;100224.50;5092687;28;20028;-75
2021/03/18 05:57:37;;;;;;;23.30;11.93;;;;;;;2.51;61.87;100248.69;5092853;28;20032;-74
2021/03/18 06:00:06;;;;;;;22.77;11.80;;;;;;;2.40;61.87;100224.41;5092714;28;20085;-75
2021/03/18 06:02:33;;;;;;;21.63;12.05;;;;;;;2.66;61.45;100250.91;5092698;28;20414;-71
2021/03/18 06:05:00;;;;;;;23.35;13.00;;;;;;;2.59;61.01;100223.00;5058366;28;20028;-70
2021/03/18 06:07:26;;;;;;;24.67;12.30;;;;;;;2.74;61.31;100235.75;5074782;28;20072;-75
2021/03/18 06:09:55;;;;;;;22.55;12.43;;;;;;;2.70;61.35;100233.22;5093149;28;20109;-71
2021/03/18 06:12:22;;;;;;;23.55;13.18;;;;;;;2.76;61.11;100231.28;5092345;28;20512;-72
2021/03/18 06:14:48;;;;;;;23.63;11.68;;;;;;;2.92;60.98;100250.16;5092437;28;20123;-73
2021/03/18 06:17:15;;;;;;;24.95;12.70;;;;;;;3.04;60.63;100259.47;5071081;28;20139;-73
2021/03/18 06:19:40;;;;;;;23.40;12.57;;;;;;;3.05;61.06;100269.13;5072455;28;20436;-72
2021/03/18 06:22:05;;;;;;;25.02;13.13;;;;;;;2.79;60.37;100198.72;5072135;28;20033;-75
2021/03/18 06:24:33;;;;;;;26.08;13.27;;;;;;;2.85;60.51;100217.84;5071255;28;20118;-71
2021/03/18 06:26:58;;;;;;;25.52;13.10;;;;;;;3.14;60.54;100235.44;5071061;28;20033;-71
2021/03/18 06:29:36;;;;;;;27.42;14.07;;;;;;;3.28;60.01;100255.25;5070766;28;20020;-70
2021/03/18 06:32:17;;;;;;;29.23;13.70;;;;;;;3.26;60.57;100255.28;5072365;28;20070;-72
2021/03/18 06:34:47;;;;;;;25.60;13.40;;;;;;;3.28;60.29;100232.41;5076269;28;20155;-74
2021/03/18 06:37:34;;;;;;;28.70;13.30;;;;;;;3.57;60.12;100260.50;5075882;28;20062;-78
2021/03/18 06:40:09;;;;;;;28.70;14.55;;;;;;;3.65;59.60;100260.25;5090962;28;20028;-71
2021/03/18 06:42:35;;;;;;;25.85;13.73;;;;;;;3.67;59.41;100264.59;5094916;28;20102;-75
2021/03/18 06:45:08;;;;;;;27.15;14.32;;;;;;;3.71;59.78;100273.25;5077585;28;20123;-72
2021/03/18 06:47:54;;;;;;;28.67;13.43;;;;;;;3.84;59.38;100268.44;5094868;28;20074;-73
2021/03/18 06:50:22;;;;;;;26.92;14.02;;;;;;;3.95;59.10;100277.72;5095252;28;20040;-75
2021/03/18 06:52:48;;;;;;;27.85;14.38;;;;;;;3.98;58.92;100264.44;5095305;28;20077;-75
2021/03/18 06:55:27;;;;;;;26.80;14.45;;;;;;;3.74;58.83;100210.69;5096641;28;20028;-75
2021/03/18 06:58:16;;;;;;;30.08;14.50;;;;;;;4.14;58.09;100277.13;5095270;28;20123;-76
2021/03/18 07:00:43;;;;;;;26.02;13.93;;;;;;;4.17;58.12;100282.31;5096048;28;20043;-75
2021/03/18 07:03:10;;;;;;;27.92;14.05;;;;;;;4.24;57.84;100279.41;5096048;28;20024;-75
2021/03/18 07:05:44;;;;;;;28.63;14.38;;;;;;;4.07;58.86;100255.38;5095530;28;20040;-71
2021/03/18 07:08:28;;;;;;;28.67;14.48;;;;;;;3.91;58.75;100223.34;5094490;28;20501;-71
2021/03/18 07:10:55;;;;;;;26.58;14.23;;;;;;;4.26;58.15;100285.53;5095600;28;20073;-71
2021/03/18 07:13:30;;;;;;;27.75;13.68;;;;;;;3.81;58.46;100205.22;5095630;28;20383;-71
2021/03/18 07:15:57;;;;;;;25.63;13.35;;;;;;;4.22;58.30;100280.38;5099098;28;20079;-71
2021/03/18 07:18:24;;;;;;;29.35;14.88;;;;;;;3.86;58.75;100230.56;5115637;28;20144;-71
2021/03/18 07:21:13;;;;;;;27.60;14.00;;;;;;;4.33;58.34;100280.88;5114494;28;20153;-70
2021/03/18 07:23:48;;;;;;;29.30;14.98;;;;;;;4.31;58.96;100266.84;5114581;28;20055;-70
2021/03/18 07:26:19;;;;;;;31.33;14.85;;;;;;;4.18;58.35;100241.81;5115268;28;20119;-74
2021/03/18 07:28:49;;;;;;;26.63;14.00;;;;;;;4.50;57.54;100248.59;5115778;28;20038;-77
2021/03/18 07:31:17;;;;;;;26.88;14.48;;;;;;;4.62;58.00;100279.00;5115465;27;20089;-77
2021/03/18 07:33:43;;;;;;;30.85;15.43;;;;;;;4.58;57.65;100251.84;5115596;28;20035;-77
2021/03/18 07:36:09;;;;;;;29.38;15.75;;;;;;;4.83;57.48;100275.63;5115923;28;20137;-76
2021/03/18 07:38:37;;;;;;;28.30;15.23;;;;;;;5.01;56.70;100268.75;5115720;28;20039;-78
2021/03/18 07:41:04;;;;;;;27.30;13.93;;;;;;;5.07;56.24;100282.63;5114294;28;20470;-77
2021/03/18 07:43:30;;;;;;;31.95;15.38;;;;;;;5.00;56.86;100265.25;5115093;28;20035;-73
2021/03/18 07:45:58;;;;;;;25.73;13.93;;;;;;;5.24;56.11;100258.19;5114487;28;20439;-74
2021/03/18 07:48:27;;;;;;;28.92;16.17;;;;;;;5.00;55.75;100207.09;5115311;28;20359;-76
2021/03/18 07:50:54;;;;;;;26.58;14.50;;;;;;;5.20;55.00;100234.56;5115427;28;20374;-78
2021/03/18 07:53:21;;;;;;;27.08;14.30;;;;;;;5.32;54.37;100239.41;5115068;28;20035;-76
2021/03/18 07:55:48;;;;;;;26.20;14.80;;;;;;;5.37;55.19;100248.00;5114808;28;20028;-78
2021/03/18 07:58:14;;;;;;;27.05;14.38;;;;;;;5.26;55.56;100239.63;5115798;28;20043;-75
2021/03/18 08:00:44;;;;;;;28.00;14.75;;;;;;;5.54;56.08;100256.16;5115241;28;20482;-74
2021/03/18 08:03:22;;;;;;;30.50;15.77;;;;;;;5.79;54.74;100263.09;5113404;28;20478;-77
2021/03/18 08:05:48;;;;;;;28.60;14.93;;;;;;;5.94;54.84;100263.38;5115568;28;20054;-75
2021/03/18 08:08:49;;;;;;;28.42;15.35;;;;;;;5.89;54.49;100256.53;5115202;28;20031;-77
2021/03/18 08:11:16;;;;;;;30.38;14.93;;;;;;;5.83;54.11;100254.13;5035289;28;20041;-76
2021/03/18 08:13:43;;;;;;;30.23;15.23;;;;;;;5.99;53.75;100255.25;5076846;28;20086;-79
2021/03/18 08:16:30;;;;;;;30.15;15.63;;;;;;;6.01;54.49;100261.34;5099932;28;20040;-75
2021/03/18 08:18:57;;;;;;;27.48;14.27;;;;;;;5.93;54.50;100252.84;5114244;28;20040;-76
2021/03/18 08:21:43;;;;;;;29.20;15.90;;;;;;;5.93;54.47;100252.84;5121931;28;20036;-75
2021/03/18 08:24:12;;;;;;;29.35;15.82;;;;;;;6.17;53.73;100251.81;5114636;28;20085;-72
2021/03/18 08:26:47;;;;;;;30.02;15.65;;;;;;;6.36;53.74;100248.38;5096267;28;20039;-78
2021/03/18 08:29:23;;;;;;;28.50;15.70;;;;;;;6.63;52.67;100249.00;5079802;28;20473;-77
2021/03/18 08:31:51;;;;;;;29.25;15.48;;;;;;;5.67;53.91;100187.72;5114261;28;20036;-77
2021/03/18 08:34:19;;;;;;;26.60;14.75;;;;;;;6.08;53.64;100230.16;5114304;28;20096;-77
2021/03/18 08:36:51;;;;;;;29.17;14.88;;;;;;;6.49;51.93;100262.84;5096229;28;20118;-75
2021/03/18 08:39:41;;;;;;;26.45;14.35;;;;;;;6.37;52.40;100248.34;5114166;28;20478;-77
2021/03/18 08:42:28;;;;;;;26.48;15.05;;;;;;;6.52;52.19;100262.72;5113621;28;20046;-74
2021/03/18 08:45:04;;;;;;;23.92;13.63;;;;;;;6.39;50.88;100227.09;5113733;28;20039;-75
2021/03/18 08:47:36;;;;;;;24.98;14.45;;;;;;;6.42;52.20;100250.78;5096011;28;20061;-77
2021/03/18 08:50:03;;;;;;;25.73;13.75;;;;;;;6.37;52.43;100253.66;5112663;28;20052;-77
2021/03/18 08:52:38;;;;;;;26.25;13.73;;;;;;;6.11;51.39;100200.91;5092276;28;20036;-77
2021/03/18 08:55:06;;;;;;;27.17;14.07;;;;;;;6.34;50.63;100221.13;5093737;28;20040;-79
2021/03/18 08:57:33;;;;;;;26.15;13.93;;;;;;;6.68;51.08;100253.19;5093622;28;20135;-81
2021/03/18 09:00:16;;;;;;;25.27;13.32;;;;;;;6.86;49.90;100241.75;5092211;28;20127;-80
2021/03/18 09:02:42;;;;;;;20.88;12.52;;;;;;;6.65;49.69;100226.78;5093778;28;20032;-78
2021/03/18 09:05:15;;;;;;;20.70;11.50;;;;;;;6.28;49.41;100196.63;5093220;28;20040;-76
2021/03/18 09:07:41;;;;;;;24.23;12.57;;;;;;;6.90;49.51;100253.06;5093140;28;20119;-75
2021/03/18 09:10:15;;;;;;;22.63;12.52;;;;;;;7.02;48.56;100256.94;5102172;28;20036;-79
2021/03/18 09:12:53;;;;;;;22.08;12.77;;;;;;;7.07;48.56;100252.31;5113850;28;20031;-75
2021/03/18 09:15:25;;;;;;;24.70;12.65;;;;;;;7.32;48.28;100255.53;5113571;28;20047;-77
2021/03/18 09:17:54;;;;;;;20.02;10.02;;;;;;;7.15;45.89;100250.19;5113173;28;20043;-79
2021/03/18 09:20:30;;;;;;;14.52;8.20;;;;;;;6.59;45.26;100233.22;5113790;28;20035;-76
2021/03/18 09:23:12;;;;;;;15.65;8.60;;;;;;;6.78;45.45;100254.50;5113545;28;20084;-78
2021/03/18 09:25:38;;;;;;;14.43;8.50;;;;;;;6.92;44.90;100239.75;5112371;28;20035;-76
2021/03/18 09:28:05;;;;;;;12.18;7.43;;;;;;;6.85;44.79;100258.59;5112158;28;20512;-78
2021/03/18 09:30:34;;;;;;;15.43;7.13;;;;;;;6.54;45.74;100252.91;5113070;28;20614;-77
2021/03/18 09:33:00;;;;;;;12.07;6.95;;;;;;;6.84;44.77;100246.25;5112276;28;20028;-74
2021/03/18 09:35:27;;;;;;;16.27;7.85;;;;;;;6.64;44.79;100251.56;5116578;28;20076;-74
2021/03/18 09:37:54;;;;;;;13.07;7.40;;;;;;;6.68;44.75;100252.31;5112036;28;20395;-76
2021/03/18 09:40:30;;;;;;;13.25;8.25;;;;;;;6.73;44.71;100229.09;5112867;27;20053;-78
2021/03/18 09:42:56;;;;;;;14.52;8.05;;;;;;;6.75;44.79;100222.78;5113501;28;20055;-79
2021/03/18 09:45:21;;;;;;;13.93;7.65;;;;;;;6.78;44.30;100227.97;5112271;28;20086;-74
2021/03/18 09:47:50;;;;;;;13.80;7.53;;;;;;;6.68;44.22;100200.16;5111707;28;20027;-75
2021/03/18 09:50:17;;;;;;;13.77;8.15;;;;;;;6.63;44.70;100249.84;5113131;28;20028;-77
2021/03/18 09:52:43;;;;;;;14.35;7.93;;;;;;;6.65;45.02;100250.63;5113137;28;20038;-77
2021/03/18 09:55:14;;;;;;;15.90;7.80;;;;;;;6.84;44.23;100254.19;5113318;28;20525;-77
2021/03/18 09:57:40;;;;;;;13.80;7.97;;;;;;;6.86;45.04;100240.91;5113028;28;20122;-80
2021/03/18 10:00:09;;;;;;;12.25;7.10;;;;;;;6.74;43.88;100247.59;5113166;28;20059;-80
2021/03/18 10:02:34;;;;;;;13.98;7.65;;;;;;;6.40;44.33;100229.66;5113160;28;20034;-78
2021/03/18 10:05:00;;;;;;;15.40;7.50;;;;;;;6.49;44.34;100234.56;5111774;28;20044;-77
2021/03/18 10:07:27;;;;;;;10.95;6.63;;;;;;;6.57;43.83;100244.84;5112022;28;20027;-76
2021/03/18 10:09:53;;;;;;;14.30;7.70;;;;;;;6.34;44.37;100199.91;5116823;28;20027;-78
2021/03/18 10:12:24;;;;;;;12.32;7.38;;;;;;;6.69;44.12;100223.09;5116963;28;20032;-78
2021/03/18 10:15:10;;;;;;;13.60;7.53;;;;;;;6.87;43.70;100248.78;5117565;28;20385;-78
2021/03/18 10:17:41;;;;;;;12.95;6.97;;;;;;;6.39;44.19;100250.94;5116809;28;20075;-76
2021/03/18 10:20:20;;;;;;;11.02;6.50;;;;;;;6.70;43.66;100245.16;5115945;27;20063;-74
2021/03/18 10:23:00;;;;;;;13.70;7.47;;;;;;;6.60;44.20;100239.41;5098598;28;20032;-77
2021/03/18 10:25:29;;;;;;;13.35;7.13;;;;;;;6.67;44.61;100227.59;5117117;28;20028;-77
2021/03/18 10:28:10;;;;;;;14.63;7.38;;;;;;;6.98;43.15;100244.78;5098538;28;20055;-79
2021/03/18 10:30:44;;;;;;;14.00;8.02;;;;;;;6.94;44.28;100214.88;5116507;28;20031;-77
2021/03/18 10:33:12;;;;;;;12.80;7.13;;;;;;;7.04;43.23;100237.38;5116461;28;20077;-74
2021/03/18 10:35:42;;;;;;;12.73;7.43;;;;;;;6.95;42.96;100218.38;5116606;28;20465;-77
2021/03/18 10:38:11;;;;;;;12.55;6.72;;;;;;;6.73;42.55;100179.59;5098438;28;20027;-75
2021/03/18 10:40:41;;;;;;;12.73;7.40;;;;;;;6.62;42.73;100171.28;5116568;28;20031;-74
2021/03/18 10:43:24;;;;;;;13.05;7.07;;;;;;;7.07;42.60;100231.09;5116420;28;20111;-76
2021/03/18 10:45:52;;;;;;;15.20;7.45;;;;;;;7.02;42.82;100225.13;5116762;28;20514;-76
2021/03/18 10:48:21;;;;;;;14.23;7.85;;;;;;;6.75;43.41;100212.19;5116270;28;20027;-76
2021/03/18 10:50:48;;;;;;;14.60;7.95;;;;;;;6.87;43.80;100224.91;5114900;28;20489;-74
2021/03/18 10:53:14;;;;;;;13.63;8.52;;;;;;;6.88;44.15;100218.69;5114927;28;20506;-74
2021/03/18 10:55:52;;;;;;;12.98;7.43;;;;;;;6.75;43.36;100174.22;5114828;28;20031;-74
2021/03/18 10:58:23;;;;;;;13.00;6.40;;;;;;;7.11;41.73;100219.41;5116535;28;20031;-77
2021/03/18 11:00:57;;;;;;;11.15;5.72;;;;;;;7.18;40.79;100220.84;5117258;28;20024;-78
2021/03/18 11:03:25;;;;;;;;;;;;;;;6.95;41.35;100221.91;5116876;28;20027;-78
2021/03/18 11:05:51;;;;;;;12.40;6.50;;;;;;;6.92;41.97;100224.69;5116101;28;20369;-78
2021/03/18 11:08:32;;;;;;;11.18;6.60;;;;;;;6.71;42.14;100215.91;5118847;28;20077;-74
2021/03/18 11:11:10;;;;;;;13.73;7.50;;;;;;;6.83;42.02;100222.44;5115714;28;20032;-76
2021/03/18 11:13:36;;;;;;;14.40;6.90;;;;;;;6.66;42.57;100195.84;5116008;28;20057;-76
2021/03/18 11:16:04;;;;;;;12.40;7.47;;;;;;;6.81;42.69;100214.56;5115905;28;20043;-79
2021/03/18 11:18:40;;;;;;;10.45;6.65;;;;;;;6.92;43.10;100213.22;5115847;28;20077;-78
2021/03/18 11:21:21;;;;;;;14.18;7.03;;;;;;;6.69;42.18;100178.03;5114919;28;20039;-78
2021/03/18 11:23:48;;;;;;;11.50;6.80;;;;;;;6.91;42.59;100216.81;5116317;28;20042;-79
2021/03/18 11:26:17;;;;;;;13.73;7.30;;;;;;;6.92;42.78;100210.56;5114374;28;20028;-77
2021/03/18 11:28:51;;;;;;;12.98;6.57;;;;;;;6.93;42.51;100180.47;5115907;28;20027;-77
2021/03/18 11:31:19;;;;;;;10.38;6.10;;;;;;;7.12;41.63;100205.19;5114097;28;20036;-77
2021/03/18 11:33:45;;;;;;;11.52;6.80;;;;;;;7.05;41.54;100193.19;5114236;28;20040;-76
2021/03/18 11:36:12;;;;;;;12.32;7.32;;;;;;;7.11;41.94;100200.84;5115691;28;20032;-83